Time;durP1;ratioP1;P1;durP2;ratioP2;P2;SDS_P1;SDS_P2;PMS_P1;PMS_P2;Temp;Humidity;BMP_temperature;BMP_pressure;BME280_temperature;BME280_humidity;BME280_pressure;Samples;Min_cycle;Max_cycle;Signal;HPM_P1;HPM_P2
2021/10/22 00:01:09;;;;;;;3.60;0.77;;;8.90;99.90;;;;;;2584421;54;20916;31
2021/10/22 00:03:38;;;;;;;6.05;0.70;;;8.90;99.90;;;;;;2584463;54;20094;31
2021/10/22 00:06:09;;;;;;;6.50;0.77;;;8.90;99.90;;;;;;2584925;46;20886;31
2021/10/22 00:08:38;;;;;;;5.05;0.90;;;8.90;99.90;;;;;;2584390;54;20042;31
2021/10/22 00:11:08;;;;;;;6.07;0.80;;;8.80;99.90;;;;;;2584400;54;20030;31
2021/10/22 00:13:37;;;;;;;7.43;0.70;;;8.70;99.90;;;;;;2584116;54;20026;31
2021/10/22 00:16:08;;;;;;;9.18;0.70;;;8.70;99.90;;;;;;2584643;47;20927;31
2021/10/22 00:18:36;;;;;;;3.92;0.75;;;8.60;99.90;;;;;;2584903;46;20077;31
2021/10/22 00:21:04;;;;;;;3.35;0.80;;;8.60;99.90;;;;;;2584847;46;20787;31
2021/10/22 00:23:35;;;;;;;8.50;1.05;;;8.50;99.90;;;;;;2584792;46;20942;31
2021/10/22 00:26:04;;;;;;;6.93;1.00;;;8.50;99.90;;;;;;2584677;54;21777;31
2021/10/22 00:28:33;;;;;;;10.15;1.35;;;8.50;99.90;;;;;;2584565;54;20037;31
2021/10/22 00:31:02;;;;;;;7.60;1.30;;;8.40;99.90;;;;;;2584477;54;20986;31
2021/10/22 00:33:31;;;;;;;9.30;1.60;;;8.40;99.90;;;;;;2584083;54;20030;31
2021/10/22 00:36:02;;;;;;;8.65;1.40;;;8.40;99.90;;;;;;2584430;54;20171;31
2021/10/22 00:38:31;;;;;;;9.02;1.20;;;8.40;99.90;;;;;;2585021;46;20890;31
2021/10/22 00:41:18;;;;;;;5.50;1.15;;;8.40;99.90;;;;;;2584490;54;20048;31
2021/10/22 00:43:48;;;;;;;6.05;1.15;;;8.40;99.90;;;;;;2584401;54;20874;31
2021/10/22 00:46:17;;;;;;;7.90;1.30;;;8.50;99.90;;;;;;2584289;54;20106;31
2021/10/22 00:48:46;;;;;;;5.63;1.00;;;8.40;99.90;;;;;;2584318;54;20910;31
2021/10/22 16:22:11;;;;;;;7.40;1.90;;;8.40;99.90;;;;;;2624524;53;20332;31
2021/10/22 16:24:43;;;;;;;5.35;1.60;;;12.50;92.80;;;;;;2584215;54;20912;31
2021/10/22 16:27:12;;;;;;;7.32;2.53;;;12.30;92.90;;;;;;2584396;54;20884;31
2021/10/22 16:29:43;;;;;;;6.90;1.65;;;12.20;93.20;;;;;;2584917;46;19951;31
2021/10/22 16:32:14;;;;;;;7.70;1.70;;;12.10;93.30;;;;;;2584337;54;20891;31
2021/10/22 16:37:36;;;;;;;9.00;2.35;;;11.90;93.60;;;;;;2585141;47;20913;31
2021/10/22 16:40:05;;;;;;;4.27;1.70;;;11.80;93.70;;;;;;2584046;54;20085;31
2021/10/22 16:42:40;;;;;;;8.50;2.37;;;11.80;93.90;;;;;;2584971;46;20046;31
2021/10/22 16:45:14;;;;;;;13.27;3.45;;;11.70;94.00;;;;;;2584948;46;20961;31
2021/10/22 16:47:46;;;;;;;8.07;2.50;;;11.60;94.10;;;;;;2584824;46;20914;31
2021/10/22 16:50:15;;;;;;;9.40;3.03;;;11.60;94.10;;;;;;2584922;47;20866;31
2021/10/22 16:52:54;;;;;;;5.83;1.90;;;11.60;94.20;;;;;;2584863;47;20029;31
2021/10/22 16:55:25;;;;;;;7.00;2.15;;;11.50;94.20;;;;;;2584908;47;20969;31
2021/10/22 16:57:56;;;;;;;4.37;1.80;;;11.50;94.30;;;;;;2584220;54;20809;31
2021/10/22 17:00:27;;;;;;;6.35;1.90;;;11.50;94.30;;;;;;2584804;47;20254;31
2021/10/22 17:02:58;;;;;;;4.20;2.05;;;11.40;94.40;;;;;;2584947;47;20746;31
2021/10/22 17:05:27;;;;;;;6.00;2.10;;;11.40;94.40;;;;;;2584266;54;19943;31
2021/10/22 17:07:55;;;;;;;5.75;2.00;;;11.30;94.50;;;;;;2584619;47;20878;31
2021/10/22 17:10:26;;;;;;;9.40;2.85;;;11.40;94.50;;;;;;2584832;47;20939;31
2021/10/22 17:12:57;;;;;;;7.40;1.90;;;11.30;94.50;;;;;;2584822;47;20034;31
2021/10/22 17:15:26;;;;;;;4.93;1.90;;;11.40;94.70;;;;;;2584826;47;20908;31
2021/10/22 17:17:55;;;;;;;5.82;1.85;;;11.30;94.60;;;;;;2584578;47;19942;31
2021/10/22 17:20:26;;;;;;;6.50;2.15;;;11.30;94.60;;;;;;2584386;47;20861;31
2021/10/22 17:22:58;;;;;;;5.80;2.20;;;11.30;94.70;;;;;;2584741;47;20817;31
2021/10/22 17:25:27;;;;;;;5.93;2.10;;;11.30;94.80;;;;;;2584034;54;20266;31
2021/10/22 17:27:56;;;;;;;6.80;2.25;;;11.30;94.90;;;;;;2583920;47;20761;31
2021/10/22 17:30:27;;;;;;;6.75;2.20;;;11.20;95.00;;;;;;2584771;47;20034;31
2021/10/22 17:32:59;;;;;;;6.68;2.03;;;11.20;95.10;;;;;;2584818;47;20022;31
2021/10/22 17:35:28;;;;;;;6.68;2.17;;;11.20;95.10;;;;;;2584487;54;20031;31
2021/10/22 17:37:56;;;;;;;4.87;1.80;;;11.20;95.10;;;;;;2585372;46;20042;31
2021/10/22 17:40:28;;;;;;;7.10;2.00;;;11.20;95.20;;;;;;2585164;46;20097;31
2021/10/22 17:42:59;;;;;;;5.10;2.05;;;11.20;95.30;;;;;;2584935;54;21381;31
2021/10/22 17:45:28;;;;;;;4.47;1.90;;;11.20;95.50;;;;;;2585487;46;20918;31
2021/10/22 17:47:56;;;;;;;5.32;2.00;;;11.20;95.40;;;;;;2585271;46;20046;31
2021/10/22 17:50:27;;;;;;;6.25;1.90;;;11.20;95.40;;;;;;2585321;46;20026;31
2021/10/22 17:52:59;;;;;;;4.60;1.50;;;11.20;95.60;;;;;;2585342;46;20066;31
2021/10/22 17:55:28;;;;;;;4.50;1.80;;;11.30;95.60;;;;;;2591693;39;21470;31
2021/10/22 17:57:57;;;;;;;6.95;1.70;;;11.20;95.70;;;;;;2584808;54;20062;31
2021/10/22 18:00:31;;;;;;;5.60;1.42;;;11.20;95.60;;;;;;2584572;54;20038;31
2021/10/22 18:03:02;;;;;;;4.05;1.40;;;11.20;95.60;;;;;;2585449;46;20803;31
2021/10/22 18:05:30;;;;;;;4.80;2.00;;;11.20;95.60;;;;;;2585126;46;21216;31
2021/10/22 18:08:01;;;;;;;5.53;1.50;;;11.20;95.70;;;;;;2584838;54;20988;31
2021/10/22 18:10:32;;;;;;;10.25;2.15;;;11.10;95.80;;;;;;2585258;46;20789;31
2021/10/22 18:13:03;;;;;;;5.80;1.60;;;11.20;95.80;;;;;;2585273;46;20880;31
2021/10/22 18:15:36;;;;;;;6.55;2.17;;;11.20;96.00;;;;;;2584824;54;20102;31
2021/10/22 18:18:09;;;;;;;6.10;1.90;;;11.20;96.00;;;;;;2584568;54;20054;31
2021/10/22 18:20:42;;;;;;;7.40;2.15;;;11.20;96.10;;;;;;2585137;46;20948;31
2021/10/22 18:23:15;;;;;;;9.40;2.20;;;11.20;96.10;;;;;;2585268;46;21001;31
2021/10/22 18:25:52;;;;;;;11.93;1.67;;;11.20;96.40;;;;;;2585172;46;20903;31
2021/10/22 18:31:13;;;;;;;6.60;2.30;;;11.10;96.50;;;;;;2585258;46;21002;31
2021/10/22 18:33:46;;;;;;;8.30;2.40;;;11.10;96.60;;;;;;2584877;54;20934;31
2021/10/22 18:36:21;;;;;;;6.38;2.10;;;11.20;96.70;;;;;;2585108;46;20985;31
2021/10/22 18:38:51;;;;;;;7.55;2.00;;;11.10;96.90;;;;;;2585113;46;20887;31
2021/10/22 18:41:24;;;;;;;7.90;1.70;;;11.10;96.80;;;;;;2585273;46;20097;31
2021/10/22 18:43:57;;;;;;;8.15;2.20;;;11.10;96.90;;;;;;2585176;46;20957;31
2021/10/22 18:46:32;;;;;;;6.27;1.73;;;11.20;97.00;;;;;;2585271;46;21831;31
2021/10/22 18:51:37;;;;;;;4.50;1.25;;;11.20;97.20;;;;;;2585008;46;20045;31
2021/10/22 18:54:09;;;;;;;5.53;2.13;;;11.20;97.40;;;;;;2584586;54;20042;31
2021/10/22 18:56:42;;;;;;;5.90;2.00;;;11.20;97.40;;;;;;2585150;46;20042;31
2021/10/22 18:59:15;;;;;;;31.15;3.35;;;11.10;97.50;;;;;;2585028;46;20027;31
2021/10/22 19:01:50;;;;;;;6.40;1.20;;;11.10;97.60;;;;;;2584624;54;20950;31
2021/10/22 19:04:26;;;;;;;5.20;1.50;;;11.10;97.80;;;;;;2585068;46;20068;31
2021/10/22 19:07:00;;;;;;;6.20;1.60;;;11.10;98.10;;;;;;2585217;46;20808;31
2021/10/22 19:09:32;;;;;;;6.25;1.40;;;11.00;98.20;;;;;;2584939;46;21110;31
2021/10/22 19:12:08;;;;;;;7.30;1.90;;;11.00;98.40;;;;;;2585071;46;20061;31
2021/10/22 19:14:58;;;;;;;5.93;1.20;;;10.90;98.50;;;;;;2585019;46;20037;31
2021/10/22 19:17:44;;;;;;;3.03;1.33;;;10.90;98.60;;;;;;2585086;46;20154;31
2021/10/22 19:20:24;;;;;;;5.97;1.10;;;10.90;98.90;;;;;;2584410;54;20026;31
2021/10/22 19:23:17;;;;;;;4.57;1.45;;;10.80;99.30;;;;;;2584942;46;20054;31
2021/10/22 19:25:50;;;;;;;5.90;1.17;;;10.80;99.50;;;;;;2585105;46;20899;31
2021/10/22 19:28:22;;;;;;;7.90;1.85;;;10.80;99.50;;;;;;2584589;54;20940;31
2021/10/22 19:31:06;;;;;;;5.90;1.38;;;10.80;99.50;;;;;;2584469;54;20801;31
2021/10/22 19:33:42;;;;;;;4.60;1.50;;;10.70;99.60;;;;;;2585263;46;20866;31
2021/10/22 19:36:14;;;;;;;8.50;1.60;;;10.70;99.70;;;;;;2584524;54;20030;31
2021/10/22 19:38:43;;;;;;;6.67;2.27;;;10.70;99.90;;;;;;2584688;54;21811;31
2021/10/22 19:41:13;;;;;;;7.05;1.52;;;10.70;99.90;;;;;;2584869;46;20097;31
2021/10/22 19:43:49;;;;;;;5.35;1.00;;;10.70;99.90;;;;;;2584899;46;20911;31
2021/10/22 19:46:24;;;;;;;5.10;1.03;;;10.70;99.90;;;;;;2584792;46;20076;31
2021/10/22 19:49:09;;;;;;;5.32;1.20;;;10.70;99.90;;;;;;2584461;54;20911;31
2021/10/22 19:51:47;;;;;;;4.25;1.23;;;10.60;99.90;;;;;;2584975;46;20042;31
2021/10/22 19:54:18;;;;;;;11.10;1.70;;;10.70;99.90;;;;;;2585026;46;20114;31
2021/10/22 19:56:52;;;;;;;5.85;1.15;;;10.60;99.90;;;;;;2584936;46;21044;31
2021/10/22 19:59:26;;;;;;;4.25;1.15;;;10.60;99.90;;;;;;2584774;47;20769;31
2021/10/22 20:02:01;;;;;;;8.10;1.40;;;10.50;99.90;;;;;;2584712;46;21501;31
2021/10/22 20:04:32;;;;;;;3.87;1.10;;;10.50;99.90;;;;;;2584402;54;20031;31
2021/10/22 20:07:03;;;;;;;4.00;1.10;;;10.40;99.90;;;;;;2584281;54;20046;31
2021/10/22 20:09:39;;;;;;;4.50;1.47;;;10.40;99.90;;;;;;2584155;46;20450;31
2021/10/22 20:12:18;;;;;;;6.90;1.40;;;10.30;99.90;;;;;;2585034;46;20857;31
2021/10/22 20:15:13;;;;;;;6.53;1.67;;;10.30;99.90;;;;;;2584167;54;20049;31
2021/10/22 20:17:51;;;;;;;6.00;2.20;;;10.30;99.90;;;;;;2584850;46;20851;31
2021/10/22 20:20:30;;;;;;;4.60;0.85;;;10.20;99.90;;;;;;2583334;54;19942;31
2021/10/22 20:23:00;;;;;;;4.25;1.20;;;10.10;99.90;;;;;;2584054;54;20057;31
2021/10/22 20:25:32;;;;;;;4.30;1.00;;;10.10;99.90;;;;;;2584122;54;20061;31
2021/10/22 20:28:05;;;;;;;5.30;1.60;;;10.10;99.90;;;;;;2584693;46;20089;31
2021/10/22 20:30:40;;;;;;;3.93;1.03;;;10.00;99.90;;;;;;2584162;54;20060;31
2021/10/22 20:33:10;;;;;;;5.68;1.00;;;10.00;99.90;;;;;;2583970;47;20863;31
2021/10/22 20:35:44;;;;;;;5.60;1.30;;;10.00;99.90;;;;;;2584661;46;20955;31
2021/10/22 20:38:15;;;;;;;5.85;1.05;;;9.90;99.90;;;;;;2584638;46;21043;31
2021/10/22 20:40:46;;;;;;;6.13;1.17;;;9.90;99.90;;;;;;2584527;47;20027;31
2021/10/22 20:43:26;;;;;;;4.40;1.05;;;9.80;99.90;;;;;;2583159;54;20957;31
2021/10/22 20:46:13;;;;;;;7.68;2.05;;;9.80;99.90;;;;;;2584206;54;20083;31
2021/10/22 20:49:00;;;;;;;3.80;1.50;;;9.60;99.90;;;;;;2584097;54;20049;31
2021/10/22 21:00:02;;;;;;;4.37;0.53;;;8.70;99.90;;;;;;2584616;47;20126;31
2021/10/22 21:02:31;;;;;;;2.55;0.60;;;8.50;99.90;;;;;;2584124;54;20960;31
2021/10/22 21:05:04;;;;;;;3.58;0.40;;;8.30;99.90;;;;;;2584140;54;20983;31
2021/10/22 21:07:33;;;;;;;1.45;0.55;;;8.30;99.90;;;;;;2584860;47;20935;31
2021/10/22 21:10:02;;;;;;;1.67;0.47;;;8.30;99.90;;;;;;2584502;54;20831;31
2021/10/22 21:12:31;;;;;;;1.47;0.40;;;8.20;99.90;;;;;;2585443;46;20238;31
2021/10/22 21:15:00;;;;;;;1.55;0.40;;;8.10;99.90;;;;;;2585384;46;20821;31
2021/10/22 21:17:32;;;;;;;2.70;0.30;;;8.10;99.90;;;;;;2585458;46;20948;31
2021/10/22 21:20:01;;;;;;;2.28;0.63;;;8.00;99.90;;;;;;2584945;54;20949;31
2021/10/22 21:22:32;;;;;;;0.93;0.30;;;7.90;99.90;;;;;;2585512;46;20970;31
2021/10/22 21:25:03;;;;;;;4.35;0.85;;;7.90;99.90;;;;;;2585471;46;20033;31
2021/10/22 21:27:33;;;;;;;1.70;0.40;;;7.80;99.90;;;;;;2585408;46;20840;31
2021/10/22 21:30:06;;;;;;;1.65;0.30;;;7.80;99.90;;;;;;2584872;54;20265;31
2021/10/22 21:32:37;;;;;;;1.70;0.52;;;7.80;99.90;;;;;;2584958;54;20113;31
2021/10/22 21:35:07;;;;;;;2.80;0.40;;;7.70;99.90;;;;;;2585438;46;20793;31
2021/10/22 21:37:38;;;;;;;2.70;0.40;;;7.70;99.90;;;;;;2585476;46;20758;31
2021/10/22 21:40:08;;;;;;;2.38;0.30;;;7.60;99.90;;;;;;2584875;54;20030;31
2021/10/22 21:42:37;;;;;;;3.30;1.10;;;7.60;99.90;;;;;;2585483;46;20027;31
2021/10/22 21:45:12;;;;;;;1.73;0.30;;;7.60;99.90;;;;;;2584863;54;20155;31
2021/10/22 21:47:42;;;;;;;2.05;0.60;;;7.50;99.90;;;;;;2584721;54;20956;31
2021/10/22 21:50:14;;;;;;;2.83;0.50;;;7.50;99.90;;;;;;2584912;54;20033;31
2021/10/22 21:52:45;;;;;;;3.40;0.50;;;7.50;99.90;;;;;;2585387;46;20052;31
2021/10/22 21:55:16;;;;;;;2.00;0.60;;;7.60;99.90;;;;;;2585404;46;20925;31
2021/10/22 21:57:45;;;;;;;1.50;0.75;;;7.60;99.90;;;;;;2585242;46;20038;31
2021/10/22 22:00:15;;;;;;;2.30;0.60;;;7.60;99.90;;;;;;2585233;46;20908;31
2021/10/22 22:02:44;;;;;;;4.03;0.70;;;7.60;99.90;;;;;;2585415;46;20830;31
2021/10/22 22:05:13;;;;;;;2.30;0.70;;;7.50;99.90;;;;;;2585209;46;20048;31
2021/10/22 22:07:42;;;;;;;2.63;0.80;;;7.50;99.90;;;;;;2585194;46;20026;31
2021/10/22 22:10:13;;;;;;;5.00;0.70;;;7.40;99.90;;;;;;2585118;46;20026;31
2021/10/22 22:12:44;;;;;;;3.20;0.60;;;7.50;99.90;;;;;;2584941;54;20958;31
2021/10/22 22:15:14;;;;;;;1.80;0.70;;;7.40;99.90;;;;;;2585323;46;20990;31
2021/10/22 22:17:45;;;;;;;2.35;0.70;;;7.40;99.90;;;;;;2584715;54;20038;31
2021/10/22 22:20:16;;;;;;;1.77;0.40;;;7.30;99.90;;;;;;2584943;46;20046;31
2021/10/22 22:22:45;;;;;;;0.90;0.50;;;7.40;99.90;;;;;;2585267;47;20047;31
2021/10/22 22:25:14;;;;;;;2.00;0.50;;;7.40;99.90;;;;;;2585081;46;20034;31
2021/10/22 22:27:45;;;;;;;1.25;0.50;;;7.40;99.90;;;;;;2585062;46;20864;31
2021/10/22 22:30:19;;;;;;;1.98;0.40;;;7.50;99.90;;;;;;2584662;54;20058;31
2021/10/22 22:32:48;;;;;;;2.65;0.52;;;7.40;99.90;;;;;;2584709;54;20984;31
2021/10/22 22:35:19;;;;;;;3.10;0.63;;;7.40;99.90;;;;;;2585083;46;20030;31
2021/10/22 22:37:50;;;;;;;3.28;0.65;;;7.40;99.90;;;;;;2585094;46;20050;31
2021/10/22 22:40:25;;;;;;;6.60;0.60;;;7.50;99.90;;;;;;2585235;46;20965;31
2021/10/22 22:43:08;;;;;;;3.17;0.80;;;7.50;99.90;;;;;;2584730;54;20986;31
2021/10/22 22:45:38;;;;;;;2.08;0.60;;;7.50;99.90;;;;;;2584883;46;20111;31
2021/10/22 22:48:09;;;;;;;2.60;0.75;;;7.40;99.90;;;;;;2584608;54;20098;31
2021/10/22 22:50:40;;;;;;;2.53;0.70;;;7.50;99.90;;;;;;2585138;46;20073;31
2021/10/22 22:53:14;;;;;;;1.57;0.50;;;7.40;99.90;;;;;;2584728;54;20993;31
2021/10/22 22:55:43;;;;;;;4.22;0.70;;;7.40;99.90;;;;;;2585470;46;21862;31
2021/10/22 22:58:14;;;;;;;3.63;1.00;;;7.40;99.90;;;;;;2584519;54;20841;31
2021/10/22 23:00:44;;;;;;;2.80;0.85;;;7.40;99.90;;;;;;2584796;47;20033;31
2021/10/22 23:03:15;;;;;;;3.50;0.80;;;7.40;99.90;;;;;;2584910;46;20022;31
2021/10/22 23:05:46;;;;;;;2.70;0.82;;;7.40;99.90;;;;;;2585014;46;20101;31
2021/10/22 23:08:17;;;;;;;1.70;0.80;;;7.40;99.90;;;;;;2584648;54;20981;31
2021/10/22 23:10:48;;;;;;;2.33;1.00;;;7.30;99.90;;;;;;2585138;46;20917;31
2021/10/22 23:13:17;;;;;;;4.85;1.70;;;7.40;99.90;;;;;;2585063;46;20768;31
2021/10/22 23:15:46;;;;;;;4.47;1.20;;;7.30;99.90;;;;;;2585116;46;19962;31
2021/10/22 23:18:16;;;;;;;4.77;1.13;;;7.30;99.90;;;;;;2584928;46;20157;31
2021/10/22 23:20:45;;;;;;;3.27;1.10;;;7.30;99.90;;;;;;2584434;54;19934;31
2021/10/22 23:23:14;;;;;;;3.42;2.22;;;7.30;99.90;;;;;;2584841;46;20065;31
2021/10/22 23:25:43;;;;;;;4.32;1.33;;;7.30;99.90;;;;;;2584989;46;20034;31
2021/10/22 23:28:11;;;;;;;5.90;1.70;;;7.30;99.90;;;;;;2584835;46;20093;31
2021/10/22 23:30:42;;;;;;;3.78;1.63;;;7.30;99.90;;;;;;2584493;54;20070;31
2021/10/22 23:33:13;;;;;;;4.15;1.80;;;7.30;99.90;;;;;;2584735;46;20938;31
2021/10/22 23:35:42;;;;;;;6.68;1.55;;;7.30;99.90;;;;;;2585067;46;20069;31
2021/10/22 23:38:10;;;;;;;3.45;1.60;;;7.30;99.90;;;;;;2584778;46;20105;31
2021/10/22 23:40:38;;;;;;;5.00;1.65;;;7.30;99.90;;;;;;2584857;46;20977;31
2021/10/22 23:43:07;;;;;;;5.30;1.20;;;7.30;99.90;;;;;;2585060;46;20893;31
2021/10/22 23:45:35;;;;;;;5.03;1.50;;;7.30;99.90;;;;;;2584228;54;20053;31
2021/10/22 23:48:06;;;;;;;4.40;1.10;;;7.20;99.90;;;;;;2584420;54;20927;31
2021/10/22 23:50:40;;;;;;;4.10;1.17;;;7.20;99.90;;;;;;2584535;54;20945;31
2021/10/22 23:53:08;;;;;;;5.18;1.30;;;7.20;99.90;;;;;;2585018;46;20891;31
2021/10/22 23:55:37;;;;;;;2.90;1.10;;;7.20;99.90;;;;;;2584819;46;20134;31
2021/10/22 23:58:07;;;;;;;6.70;1.10;;;7.20;99.90;;;;;;2584891;46;20761;31
